createdAt,value
2016-07-13T00:00:26.078Z,24.96
2016-07-13T00:01:25.392Z,24.96
2016-07-13T00:02:24.677Z,24.96
2016-07-13T00:03:25.391Z,24.93
2016-07-13T00:04:26.104Z,24.99
2016-07-13T00:05:26.110Z,25.05
2016-07-13T00:06:26.114Z,24.85
2016-07-13T00:07:26.330Z,24.83
2016-07-13T00:08:25.418Z,24.69
2016-07-13T00:09:25.825Z,24.61
2016-07-13T00:10:25.428Z,24.68
2016-07-13T00:11:26.141Z,24.84
2016-07-13T00:12:26.155Z,24.91
2016-07-13T00:13:26.152Z,25
2016-07-13T00:14:25.455Z,24.95
2016-07-13T00:15:25.462Z,25.02
2016-07-13T00:16:24.754Z,25.06
2016-07-13T00:17:25.469Z,25.15
2016-07-13T00:18:26.122Z,25.08
2016-07-13T00:19:25.478Z,24.88
2016-07-13T00:20:26.396Z,24.93
2016-07-13T00:21:24.784Z,24.95
2016-07-13T00:22:25.497Z,24.98
2016-07-13T00:23:26.218Z,24.9
2016-07-13T00:24:25.506Z,24.99
2016-07-13T00:25:25.516Z,25.03
2016-07-13T00:26:26.224Z,24.9
2016-07-13T00:27:25.521Z,24.83
2016-07-13T00:28:26.238Z,24.77
2016-07-13T00:29:25.985Z,24.73
2016-07-13T00:30:24.832Z,24.68
2016-07-13T00:31:25.747Z,24.8
2016-07-13T00:32:25.552Z,24.77
2016-07-13T00:33:26.260Z,24.62
2016-07-13T00:34:25.563Z,24.61
2016-07-13T00:35:25.575Z,24.78
2016-07-13T00:36:26.278Z,24.76
2016-07-13T00:37:25.577Z,24.81
2016-07-13T00:38:25.581Z,24.73
2016-07-13T00:39:26.294Z,24.39
2016-07-13T00:40:26.799Z,24.45
2016-07-13T00:41:25.594Z,24.53
2016-07-13T00:42:25.651Z,24.73
2016-07-13T00:43:25.607Z,24.85
2016-07-13T00:44:27.423Z,24.95
2016-07-13T00:45:24.909Z,24.99
2016-07-13T00:46:24.915Z,24.93
2016-07-13T00:47:25.630Z,25.02
2016-07-13T00:48:25.644Z,24.8
2016-07-13T00:49:24.932Z,24.9
2016-07-13T00:50:24.939Z,24.69
2016-07-13T00:51:26.061Z,24.58
2016-07-13T00:52:25.658Z,24.37
2016-07-13T00:53:26.421Z,24.28
2016-07-13T00:54:25.665Z,24.39
2016-07-13T00:55:27.481Z,24.53
2016-07-13T00:56:26.384Z,24.6
2016-07-13T00:57:26.387Z,24.67
2016-07-13T00:58:25.687Z,24.52
2016-07-13T00:59:25.695Z,24.5
2016-07-13T01:00:25.694Z,24.61
2016-07-13T01:01:25.006Z,24.52
2016-07-13T01:02:26.206Z,24.4
2016-07-13T01:03:25.712Z,24.52
2016-07-13T01:04:25.865Z,24.52
2016-07-13T01:05:25.723Z,24.68
2016-07-13T01:06:25.725Z,24.78
2016-07-13T01:07:25.731Z,24.84
2016-07-13T01:08:25.737Z,24.87
2016-07-13T01:09:25.744Z,24.87
2016-07-13T01:10:26.451Z,24.84
2016-07-13T01:11:25.751Z,24.84
2016-07-13T01:12:25.761Z,24.91
2016-07-13T01:13:26.265Z,24.87
2016-07-13T01:14:26.476Z,24.78
2016-07-13T01:15:25.976Z,24.83
2016-07-13T01:16:26.540Z,24.87
2016-07-13T01:17:25.785Z,24.61
2016-07-13T01:18:26.513Z,24.55
2016-07-13T01:19:26.506Z,24.3
2016-07-13T01:20:25.098Z,24.42
2016-07-13T01:21:26.513Z,24.39
2016-07-13T01:22:25.812Z,24.47
2016-07-13T01:23:25.828Z,24.62
2016-07-13T01:24:27.330Z,24.76
2016-07-13T01:25:26.537Z,24.67
2016-07-13T01:26:26.237Z,24.64
2016-07-13T01:27:26.544Z,24.71
2016-07-13T01:28:25.843Z,24.83
2016-07-13T01:29:25.857Z,24.84
2016-07-13T01:30:25.903Z,24.81
2016-07-13T01:31:25.154Z,24.76
2016-07-13T01:32:26.577Z,24.83
2016-07-13T01:33:26.578Z,24.87
2016-07-13T01:34:25.890Z,24.88
2016-07-13T01:35:26.984Z,24.96
2016-07-13T01:36:26.596Z,24.9
2016-07-13T01:37:26.604Z,24.95
2016-07-13T01:38:25.193Z,24.93
2016-07-13T01:39:25.907Z,24.91
2016-07-13T01:40:26.622Z,24.9
2016-07-13T01:41:25.216Z,24.91
2016-07-13T01:42:25.921Z,24.71
2016-07-13T01:43:25.930Z,24.64
2016-07-13T01:44:26.641Z,24.69
2016-07-13T01:45:26.646Z,24.69
2016-07-13T01:46:26.399Z,24.81
2016-07-13T01:47:25.960Z,24.85
2016-07-13T01:48:26.766Z,24.85
2016-07-13T01:49:26.675Z,24.9
2016-07-13T01:50:25.269Z,24.85
2016-07-13T01:51:25.980Z,24.62
2016-07-13T01:52:25.983Z,24.53
2016-07-13T01:53:26.710Z,24.39
2016-07-13T01:54:25.996Z,24.24
2016-07-13T01:55:26.001Z,24.46
2016-07-13T01:56:26.010Z,24.58
2016-07-13T01:57:27.020Z,24.53
2016-07-13T01:58:26.727Z,24.57
2016-07-13T01:59:26.728Z,24.58
2016-07-13T02:00:26.034Z,24.58
2016-07-13T02:01:27.652Z,24.47
2016-07-13T02:02:26.745Z,24.47
2016-07-13T02:03:25.338Z,24.28
2016-07-13T02:04:26.760Z,24.27
2016-07-13T02:05:26.055Z,24.21
2016-07-13T02:06:26.060Z,24.03
2016-07-13T02:07:26.066Z,24.12
2016-07-13T02:08:27.026Z,24.09
2016-07-13T02:09:26.778Z,24.31
2016-07-13T02:10:26.078Z,24.28
2016-07-13T02:11:26.788Z,24.22
2016-07-13T02:12:25.379Z,24.21
2016-07-13T02:13:26.804Z,24.31
2016-07-13T02:14:26.808Z,24.3
2016-07-13T02:15:25.393Z,24.37
2016-07-13T02:16:26.812Z,24.21
2016-07-13T02:17:26.159Z,24.3
2016-07-13T02:18:26.819Z,24.34
2016-07-13T02:19:26.211Z,24.37
2016-07-13T02:20:26.124Z,24.31
2016-07-13T02:21:25.822Z,24.46
2016-07-13T02:22:26.839Z,24.37
2016-07-13T02:23:26.136Z,24.28
2016-07-13T02:24:26.142Z,24.28
2016-07-13T02:25:26.151Z,24.31
2016-07-13T02:26:26.155Z,24.39
2016-07-13T02:27:25.450Z,24.42
2016-07-13T02:28:26.878Z,24.2
2016-07-13T02:29:26.872Z,24.05
2016-07-13T02:30:26.219Z,24.16
2016-07-13T02:31:26.177Z,24.34
2016-07-13T02:32:27.862Z,24.32
2016-07-13T02:33:26.891Z,24.28
2016-07-13T02:34:26.190Z,24.13
2016-07-13T02:35:25.506Z,24.21
2016-07-13T02:36:26.200Z,24.31
2016-07-13T02:37:26.203Z,24.32
2016-07-13T02:38:25.503Z,24.47
2016-07-13T02:39:26.921Z,24.37
2016-07-13T02:40:26.923Z,24.46
2016-07-13T02:41:26.275Z,24.37
2016-07-13T02:42:26.229Z,24.46
2016-07-13T02:43:27.912Z,24.27
2016-07-13T02:44:25.532Z,24.15
2016-07-13T02:45:26.245Z,24.21
2016-07-13T02:46:26.246Z,24.22
2016-07-13T02:47:26.956Z,24.25
2016-07-13T02:48:26.265Z,24.32
2016-07-13T02:49:25.553Z,24.15
2016-07-13T02:50:25.560Z,24.27
2016-07-13T02:51:26.981Z,24.31
2016-07-13T02:52:26.984Z,24.31
2016-07-13T02:53:26.989Z,24.16
2016-07-13T02:54:26.291Z,24.18
2016-07-13T02:55:26.291Z,23.93
2016-07-13T02:56:26.296Z,24.02
2016-07-13T02:57:26.301Z,23.98
2016-07-13T02:58:26.303Z,24.03
2016-07-13T02:59:25.601Z,24.06
2016-07-13T03:00:25.608Z,24.21
2016-07-13T03:01:27.026Z,24.3
2016-07-13T03:02:27.031Z,24.28
2016-07-13T03:03:26.731Z,24.24
2016-07-13T03:04:27.039Z,24.05
2016-07-13T03:05:27.678Z,24.24
2016-07-13T03:06:26.338Z,23.97
2016-07-13T03:07:27.351Z,23.98
2016-07-13T03:08:27.065Z,24.2
2016-07-13T03:09:27.059Z,24.2
2016-07-13T03:10:27.067Z,24.27
2016-07-13T03:11:26.367Z,24.2
2016-07-13T03:12:25.658Z,23.98
2016-07-13T03:13:26.374Z,23.93
2016-07-13T03:14:27.082Z,23.94
2016-07-13T03:15:25.674Z,24.21
2016-07-13T03:16:27.488Z,24.18
2016-07-13T03:17:26.392Z,24.16
2016-07-13T03:18:25.688Z,24.21
2016-07-13T03:19:26.447Z,24.39
2016-07-13T03:20:26.406Z,24.5
2016-07-13T03:21:26.408Z,24.35
2016-07-13T03:22:26.416Z,24.3
2016-07-13T03:23:26.416Z,24.3
2016-07-13T03:24:27.133Z,24.22
2016-07-13T03:25:25.876Z,24.21
2016-07-13T03:26:26.433Z,24.31
2016-07-13T03:27:26.455Z,24.08
2016-07-13T03:28:27.151Z,23.97
2016-07-13T03:29:27.453Z,24.1
2016-07-13T03:30:27.210Z,23.98
2016-07-13T03:31:27.215Z,24.08
2016-07-13T03:32:25.753Z,24.2
2016-07-13T03:33:26.466Z,24.21
2016-07-13T03:34:27.177Z,24.28
2016-07-13T03:35:26.474Z,24.18
2016-07-13T03:36:26.021Z,24.25
2016-07-13T03:37:26.487Z,24.31
2016-07-13T03:38:27.671Z,24.12
2016-07-13T03:39:26.501Z,24.02
2016-07-13T03:40:25.792Z,24.03
2016-07-13T03:41:25.798Z,24.24
2016-07-13T03:42:25.804Z,24.28
2016-07-13T03:43:26.514Z,24.2
2016-07-13T03:44:25.812Z,24.09
2016-07-13T03:45:26.521Z,23.9
2016-07-13T03:46:26.526Z,23.93
2016-07-13T03:47:26.932Z,23.93
2016-07-13T03:48:25.827Z,23.98
2016-07-13T03:49:27.822Z,24.1
2016-07-13T03:50:26.545Z,24.06
2016-07-13T03:51:27.501Z,24.03
2016-07-13T03:52:26.552Z,23.9
2016-07-13T03:53:27.263Z,24.08
2016-07-13T03:54:27.270Z,24.27
2016-07-13T03:55:26.565Z,24.31
2016-07-13T03:56:27.274Z,24.25
2016-07-13T03:57:26.576Z,24.05
2016-07-13T03:58:26.832Z,24.06
2016-07-13T03:59:27.287Z,24.02
2016-07-13T04:00:26.589Z,23.97
2016-07-13T04:01:27.300Z,24.18
2016-07-13T04:02:25.889Z,24.16
2016-07-13T04:03:27.309Z,24.22
2016-07-13T04:04:27.318Z,24.2
2016-07-13T04:05:26.612Z,24.12
2016-07-13T04:06:26.616Z,24.12
2016-07-13T04:07:27.327Z,24.21
2016-07-13T04:08:27.330Z,24.3
2016-07-13T04:09:26.372Z,24.32
2016-07-13T04:10:25.925Z,24.39
2016-07-13T04:11:26.637Z,24.16
2016-07-13T04:12:26.653Z,24.25
2016-07-13T04:13:27.775Z,24.4
2016-07-13T04:14:26.651Z,24.47
2016-07-13T04:15:26.660Z,24.45
2016-07-13T04:16:27.372Z,24.37
2016-07-13T04:17:27.375Z,24.32
2016-07-13T04:18:27.430Z,24.45
2016-07-13T04:19:26.692Z,24.52
2016-07-13T04:20:26.476Z,24.62
2016-07-13T04:21:26.691Z,24.52
2016-07-13T04:22:26.697Z,24.45
2016-07-13T04:23:27.406Z,24.57
2016-07-13T04:24:27.811Z,24.6
2016-07-13T04:25:26.004Z,24.57
2016-07-13T04:26:26.007Z,24.53
2016-07-13T04:27:26.721Z,24.53
2016-07-13T04:28:26.739Z,24.62
2016-07-13T04:29:26.026Z,24.68
2016-07-13T04:30:26.737Z,24.83
2016-07-13T04:31:27.294Z,24.85
2016-07-13T04:32:26.756Z,24.65
2016-07-13T04:33:28.200Z,24.67
2016-07-13T04:34:27.465Z,24.53
2016-07-13T04:35:26.064Z,24.6
2016-07-13T04:36:26.772Z,24.67
2016-07-13T04:37:26.781Z,24.81
2016-07-13T04:38:27.491Z,24.71
2016-07-13T04:39:26.791Z,24.77
2016-07-13T04:40:27.502Z,24.78
2016-07-13T04:41:26.799Z,24.81
2016-07-13T04:42:26.858Z,24.81
2016-07-13T04:43:26.808Z,24.65
2016-07-13T04:44:28.499Z,24.35
2016-07-13T04:45:27.533Z,24.37
2016-07-13T04:46:28.385Z,24.39
2016-07-13T04:47:26.832Z,24.35
2016-07-13T04:48:26.841Z,24.49
2016-07-13T04:49:26.846Z,24.55
2016-07-13T04:50:26.851Z,24.67
2016-07-13T04:51:26.154Z,24.71
2016-07-13T04:52:26.155Z,24.71
2016-07-13T04:53:27.772Z,24.58
2016-07-13T04:54:26.162Z,24.35
2016-07-13T04:55:28.559Z,24.32
2016-07-13T04:56:26.879Z,24.39
2016-07-13T04:57:26.887Z,24.61
2016-07-13T04:58:26.893Z,24.65
2016-07-13T04:59:26.895Z,24.85
2016-07-13T05:00:26.899Z,24.87
2016-07-13T05:01:27.617Z,24.76
2016-07-13T05:02:27.626Z,24.83
2016-07-13T05:03:27.629Z,24.73
2016-07-13T05:04:27.828Z,24.91
2016-07-13T05:05:26.932Z,24.99
2016-07-13T05:06:26.934Z,25.03
2016-07-13T05:07:26.943Z,25.09
2016-07-13T05:08:26.948Z,25
2016-07-13T05:09:26.952Z,25.02
2016-07-13T05:10:26.961Z,25.1
2016-07-13T05:11:26.966Z,25.14
2016-07-13T05:12:26.972Z,25.2
2016-07-13T05:13:27.686Z,25.36
2016-07-13T05:14:26.990Z,25.32
2016-07-13T05:15:27.085Z,25.42
2016-07-13T05:16:27.009Z,25.42
2016-07-13T05:17:27.011Z,25.51
2016-07-13T05:18:27.009Z,25.45
2016-07-13T05:19:27.019Z,25.5
2016-07-13T05:20:27.734Z,25.57
2016-07-13T05:21:27.076Z,25.6
2016-07-13T05:22:27.043Z,25.7
2016-07-13T05:23:27.753Z,25.72
2016-07-13T05:24:27.050Z,25.7
2016-07-13T05:25:27.764Z,25.8
2016-07-13T05:26:27.974Z,25.8
2016-07-13T05:27:27.796Z,25.8
2016-07-13T05:28:27.791Z,25.67
2016-07-13T05:29:26.391Z,25.76
2016-07-13T05:30:26.395Z,25.85
2016-07-13T05:31:27.157Z,25.75
2016-07-13T05:32:27.871Z,25.76
2016-07-13T05:33:27.123Z,25.85
2016-07-13T05:34:27.842Z,25.82
2016-07-13T05:35:27.136Z,25.87
2016-07-13T05:36:27.146Z,25.88
2016-07-13T05:37:27.299Z,25.91
2016-07-13T05:38:27.163Z,25.98
2016-07-13T05:39:28.850Z,26.02
2016-07-13T05:40:27.188Z,26.1
2016-07-13T05:41:26.479Z,26.09
2016-07-13T05:42:27.902Z,26.07
2016-07-13T05:43:27.915Z,26.12
2016-07-13T05:44:27.216Z,26.06
2016-07-13T05:45:27.216Z,26.13
2016-07-13T05:46:27.227Z,26.09
2016-07-13T05:47:27.238Z,26.25
2016-07-13T05:48:28.403Z,26.12
2016-07-13T05:49:27.252Z,26.13
2016-07-13T05:50:27.404Z,26.26
2016-07-13T05:51:27.272Z,26.3
2016-07-13T05:52:27.281Z,26.33
2016-07-13T05:53:27.994Z,26.37
2016-07-13T05:54:26.589Z,26.44
2016-07-13T05:55:28.013Z,26.4
2016-07-13T05:56:27.316Z,26.48
2016-07-13T05:57:27.323Z,26.45
2016-07-13T05:58:28.041Z,26.51
2016-07-13T05:59:28.500Z,26.5
2016-07-13T06:00:27.350Z,26.54
2016-07-13T06:01:27.362Z,26.54
2016-07-13T06:02:28.080Z,26.48
2016-07-13T06:03:26.670Z,26.36
2016-07-13T06:04:28.098Z,26.35
2016-07-13T06:05:27.405Z,26.35
2016-07-13T06:06:28.110Z,26.48
2016-07-13T06:07:26.709Z,26.44
2016-07-13T06:08:28.128Z,26.51
2016-07-13T06:09:28.143Z,26.47
2016-07-13T06:10:28.746Z,26.45
2016-07-13T06:11:28.158Z,26.51
2016-07-13T06:12:28.465Z,26.69
2016-07-13T06:13:27.469Z,26.65
2016-07-13T06:14:27.480Z,26.76
2016-07-13T06:15:27.488Z,26.69
2016-07-13T06:16:27.497Z,26.66
2016-07-13T06:17:28.212Z,26.7
2016-07-13T06:18:28.225Z,26.73
2016-07-13T06:19:27.575Z,26.8
2016-07-13T06:20:27.536Z,26.82
2016-07-13T06:21:29.061Z,26.82
2016-07-13T06:22:28.264Z,26.73
2016-07-13T06:23:28.012Z,26.69
2016-07-13T06:24:27.582Z,26.54
2016-07-13T06:25:27.585Z,26.65
2016-07-13T06:26:27.598Z,26.85
2016-07-13T06:27:27.603Z,26.82
2016-07-13T06:28:28.320Z,26.82
2016-07-13T06:29:27.620Z,26.77
2016-07-13T06:30:27.631Z,26.77
2016-07-13T06:31:27.648Z,26.87
2016-07-13T06:32:28.754Z,26.87
2016-07-13T06:33:27.663Z,26.95
2016-07-13T06:34:28.414Z,26.94
2016-07-13T06:35:28.388Z,27.12
2016-07-13T06:36:27.690Z,27.09
2016-07-13T06:37:28.409Z,27.03
2016-07-13T06:38:27.711Z,27.12
2016-07-13T06:39:27.720Z,27.13
2016-07-13T06:40:27.733Z,27.13
2016-07-13T06:41:28.448Z,27.07
2016-07-13T06:42:27.751Z,27.14
2016-07-13T06:43:29.535Z,27.13
2016-07-13T06:44:28.476Z,27.21
2016-07-13T06:45:29.088Z,27.18
2016-07-13T06:46:27.796Z,27.1
2016-07-13T06:47:28.510Z,27.1
2016-07-13T06:48:27.814Z,27.1
2016-07-13T06:49:27.826Z,27.04
2016-07-13T06:50:27.123Z,26.85
2016-07-13T06:51:27.844Z,27.09
2016-07-13T06:52:28.562Z,27.1
2016-07-13T06:53:28.567Z,26.95
2016-07-13T06:54:28.783Z,27.07
2016-07-13T06:55:28.589Z,26.99
2016-07-13T06:56:29.148Z,27.14
2016-07-13T06:57:27.896Z,27.21
2016-07-13T06:58:27.909Z,27.21
2016-07-13T06:59:27.211Z,27.28
2016-07-13T07:00:27.933Z,27.32
2016-07-13T07:01:28.648Z,27.34
2016-07-13T07:02:28.666Z,27.41
2016-07-13T07:03:27.965Z,27.55
2016-07-13T07:04:28.675Z,27.57
2016-07-13T07:05:28.849Z,27.59
2016-07-13T07:06:28.694Z,27.59
2016-07-13T07:07:28.602Z,27.51
2016-07-13T07:08:28.720Z,27.63
2016-07-13T07:09:28.024Z,27.67
2016-07-13T07:10:28.035Z,27.69
2016-07-13T07:11:28.044Z,27.7
2016-07-13T07:12:28.054Z,27.72
2016-07-13T07:13:28.067Z,27.87
2016-07-13T07:14:28.787Z,27.88
2016-07-13T07:15:28.795Z,27.88
2016-07-13T07:16:29.337Z,27.81
2016-07-13T07:17:28.119Z,27.67
2016-07-13T07:18:29.225Z,27.62
2016-07-13T07:19:28.132Z,27.72
2016-07-13T07:20:28.852Z,27.74
2016-07-13T07:21:28.865Z,27.78
2016-07-13T07:22:28.873Z,27.65
2016-07-13T07:23:28.179Z,27.59
2016-07-13T07:24:28.898Z,27.29
2016-07-13T07:25:28.904Z,27.14
2016-07-13T07:26:28.209Z,27.28
2016-07-13T07:27:27.513Z,27.32
2016-07-13T07:28:28.228Z,27.39
2016-07-13T07:29:29.182Z,27.44
2016-07-13T07:30:28.251Z,27.62
2016-07-13T07:31:28.965Z,27.55
2016-07-13T07:32:27.563Z,27.7
2016-07-13T07:33:28.987Z,27.7
2016-07-13T07:34:28.996Z,27.69
2016-07-13T07:35:29.006Z,27.62
2016-07-13T07:36:29.029Z,27.47
2016-07-13T07:37:29.030Z,27.51
2016-07-13T07:38:29.487Z,27.54
2016-07-13T07:39:29.055Z,27.54
2016-07-13T07:40:29.156Z,27.34
2016-07-13T07:41:28.360Z,27.29
2016-07-13T07:42:28.372Z,27.25
2016-07-13T07:43:27.676Z,27.39
2016-07-13T07:44:29.099Z,27.46
2016-07-13T07:45:28.404Z,27.62
2016-07-13T07:46:28.414Z,27.74
2016-07-13T07:47:28.424Z,27.75
2016-07-13T07:48:29.137Z,27.54
2016-07-13T07:49:30.252Z,27.31
2016-07-13T07:50:27.749Z,27.12
2016-07-13T07:51:29.818Z,27.09
2016-07-13T07:52:28.472Z,27.13
2016-07-13T07:53:29.194Z,27.12
2016-07-13T07:54:28.184Z,27.12
2016-07-13T07:55:27.792Z,27.07
2016-07-13T07:56:28.512Z,26.91
2016-07-13T07:57:29.223Z,27.14
2016-07-13T07:58:28.530Z,27.17
2016-07-13T07:59:28.542Z,27.02
2016-07-13T08:00:29.592Z,26.92
2016-07-13T08:01:28.552Z,26.87
2016-07-13T08:02:29.253Z,26.82
2016-07-13T08:03:29.275Z,26.85
2016-07-13T08:04:29.283Z,26.87
2016-07-13T08:05:28.582Z,26.84
2016-07-13T08:06:29.309Z,26.91
2016-07-13T08:07:28.596Z,26.92
2016-07-13T08:08:29.313Z,26.84
2016-07-13T08:09:29.321Z,26.81
2016-07-13T08:10:28.621Z,26.84
2016-07-13T08:11:29.680Z,26.82
2016-07-13T08:12:29.344Z,26.87
2016-07-13T08:13:29.999Z,26.84
2016-07-13T08:14:27.945Z,26.76
2016-07-13T08:15:28.672Z,26.75
2016-07-13T08:16:27.957Z,26.75
2016-07-13T08:17:29.378Z,26.73
2016-07-13T08:18:28.680Z,26.77
2016-07-13T08:19:29.394Z,26.77
2016-07-13T08:20:28.701Z,26.8
2016-07-13T08:21:28.699Z,26.69
2016-07-13T08:22:29.734Z,26.63
2016-07-13T08:23:28.716Z,26.6
2016-07-13T08:24:30.288Z,26.67
2016-07-13T08:25:29.448Z,26.63
2016-07-13T08:26:28.740Z,26.69
2016-07-13T08:27:28.036Z,26.66
2016-07-13T08:28:28.042Z,26.67
2016-07-13T08:29:28.760Z,26.63
2016-07-13T08:30:29.473Z,26.62
2016-07-13T08:31:28.067Z,26.73
2016-07-13T08:32:29.491Z,26.67
2016-07-13T08:33:30.008Z,26.5
2016-07-13T08:34:29.501Z,26.55
2016-07-13T08:35:29.851Z,26.45
2016-07-13T08:36:29.517Z,26.45
2016-07-13T08:37:28.114Z,26.37
2016-07-13T08:38:28.896Z,26.3
2016-07-13T08:39:28.832Z,26.29
2016-07-13T08:40:28.842Z,26.18
2016-07-13T08:41:29.547Z,26.36
2016-07-13T08:42:28.848Z,26.4
2016-07-13T08:43:29.563Z,26.44
2016-07-13T08:44:30.376Z,26.47
2016-07-13T08:45:29.572Z,26.5
2016-07-13T08:46:30.260Z,26.37
2016-07-13T08:47:28.170Z,26.32
2016-07-13T08:48:29.591Z,26.36
2016-07-13T08:49:28.892Z,26.4
2016-07-13T08:50:28.901Z,26.36
2016-07-13T08:51:28.905Z,26.43
2016-07-13T08:52:28.912Z,26.4
2016-07-13T08:53:28.210Z,26.44
2016-07-13T08:54:28.929Z,26.51
2016-07-13T08:55:28.928Z,26.5
2016-07-13T08:56:28.937Z,26.51
2016-07-13T08:57:30.655Z,26.62
2016-07-13T08:58:29.658Z,26.52
2016-07-13T08:59:29.662Z,26.45
2016-07-13T09:00:28.968Z,26.48
2016-07-13T09:01:29.679Z,26.47
2016-07-13T09:02:29.684Z,26.54
2016-07-13T09:03:28.281Z,26.66
2016-07-13T09:04:28.991Z,26.5
2016-07-13T09:05:28.998Z,26.51
2016-07-13T09:06:28.949Z,26.52
2016-07-13T09:07:28.311Z,26.4
2016-07-13T09:08:29.013Z,26.37
2016-07-13T09:09:29.734Z,26.51
2016-07-13T09:10:28.325Z,26.5
2016-07-13T09:11:29.033Z,26.52
2016-07-13T09:12:29.752Z,26.63
2016-07-13T09:13:29.047Z,26.52
2016-07-13T09:14:29.765Z,26.52
2016-07-13T09:15:29.776Z,26.48
2016-07-13T09:16:29.780Z,26.44
2016-07-13T09:17:30.034Z,26.52
2016-07-13T09:18:29.084Z,26.5
2016-07-13T09:19:29.795Z,26.52
2016-07-13T09:20:29.095Z,26.58
2016-07-13T09:21:29.812Z,26.5
2016-07-13T09:22:30.972Z,26.36
2016-07-13T09:23:29.822Z,26.43
2016-07-13T09:24:29.128Z,26.44
2016-07-13T09:25:29.844Z,26.47
2016-07-13T09:26:29.151Z,26.44
2016-07-13T09:27:28.436Z,26.54
2016-07-13T09:28:29.694Z,26.45
2016-07-13T09:29:29.158Z,26.44
2016-07-13T09:30:29.364Z,26.18
2016-07-13T09:31:28.460Z,26.23
2016-07-13T09:32:28.471Z,26.25
2016-07-13T09:33:28.475Z,26.26
2016-07-13T09:34:29.185Z,26.32
2016-07-13T09:35:29.902Z,26.17
2016-07-13T09:36:29.202Z,26.2
2016-07-13T09:37:29.203Z,26.2
2016-07-13T09:38:28.504Z,26.2
2016-07-13T09:39:30.325Z,26.25
2016-07-13T09:40:29.932Z,26.32
2016-07-13T09:41:29.935Z,26.37
2016-07-13T09:42:29.236Z,26.26
2016-07-13T09:43:29.239Z,26.33
2016-07-13T09:44:29.248Z,26.29
2016-07-13T09:45:29.970Z,26.32
2016-07-13T09:46:29.969Z,26.13
2016-07-13T09:47:29.271Z,26.33
2016-07-13T09:48:29.276Z,26.23
2016-07-13T09:49:29.283Z,26.33
2016-07-13T09:50:29.938Z,26.33
2016-07-13T09:51:29.290Z,26.32
2016-07-13T09:52:29.500Z,26.4
2016-07-13T09:53:29.312Z,26.4
2016-07-13T09:54:29.313Z,26.37
2016-07-13T09:55:30.029Z,26.45
2016-07-13T09:56:28.621Z,26.44
2016-07-13T09:57:29.332Z,26.45
2016-07-13T09:58:29.340Z,26.33
2016-07-13T09:59:28.637Z,26.36
2016-07-13T10:00:30.061Z,26.43
2016-07-13T10:01:30.115Z,26.37
2016-07-13T10:02:30.079Z,26.39
2016-07-13T10:03:30.091Z,26.4
2016-07-13T10:04:29.382Z,26.36
2016-07-13T10:05:28.684Z,26.43
2016-07-13T10:06:29.393Z,26.3
2016-07-13T10:07:29.399Z,26.21
2016-07-13T10:08:29.408Z,26.1
2016-07-13T10:09:29.416Z,26.25
2016-07-13T10:10:30.124Z,26.28
2016-07-13T10:11:29.428Z,26.33
2016-07-13T10:12:31.043Z,26.18
2016-07-13T10:13:29.438Z,26.2
2016-07-13T10:14:29.452Z,26.18
2016-07-13T10:15:29.454Z,26.23
2016-07-13T10:16:30.165Z,26.28
2016-07-13T10:17:30.174Z,26.25
2016-07-13T10:18:30.180Z,26.15
2016-07-13T10:19:29.486Z,26.05
2016-07-13T10:20:30.199Z,26.1
2016-07-13T10:21:30.196Z,26.1
2016-07-13T10:22:29.547Z,26.18
2016-07-13T10:23:31.358Z,26.12
2016-07-13T10:24:29.509Z,26.09
2016-07-13T10:25:30.324Z,26.13
2016-07-13T10:26:29.521Z,26.1
2016-07-13T10:27:29.535Z,26.15
2016-07-13T10:28:30.250Z,26.12
2016-07-13T10:29:29.541Z,26.21
2016-07-13T10:30:29.545Z,26.17
2016-07-13T10:31:30.261Z,26.05
2016-07-13T10:32:29.558Z,25.99
2016-07-13T10:33:29.565Z,26.01
2016-07-13T10:34:31.400Z,26.01
2016-07-13T10:35:29.578Z,26.01
2016-07-13T10:36:30.499Z,26.01
2016-07-13T10:37:30.299Z,25.97
2016-07-13T10:38:29.594Z,25.99
2016-07-13T10:39:30.360Z,25.99
2016-07-13T10:40:30.317Z,25.97
2016-07-13T10:41:30.321Z,26.13
2016-07-13T10:42:30.328Z,26.07
2016-07-13T10:43:29.627Z,26.06
2016-07-13T10:44:29.631Z,25.97
2016-07-13T10:45:31.024Z,25.9
2016-07-13T10:46:30.354Z,25.99
2016-07-13T10:47:30.705Z,25.88
2016-07-13T10:48:30.365Z,25.99
2016-07-13T10:49:30.377Z,25.99
2016-07-13T10:50:29.669Z,25.91
2016-07-13T10:51:28.965Z,25.95
2016-07-13T10:52:30.389Z,26.01
2016-07-13T10:53:29.685Z,25.87
2016-07-13T10:54:30.421Z,25.85
2016-07-13T10:55:29.696Z,25.85
2016-07-13T10:56:29.704Z,25.8
2016-07-13T10:57:29.711Z,25.9
2016-07-13T10:58:29.006Z,25.77
2016-07-13T10:59:29.718Z,25.76
2016-07-13T11:00:29.730Z,25.91
2016-07-13T11:01:29.733Z,25.98
2016-07-13T11:02:30.445Z,25.99
2016-07-13T11:03:29.035Z,26.05
2016-07-13T11:04:29.750Z,25.98
2016-07-13T11:05:30.466Z,25.95
2016-07-13T11:06:29.768Z,25.9
2016-07-13T11:07:29.060Z,25.83
2016-07-13T11:08:29.772Z,25.82
2016-07-13T11:09:30.684Z,25.9
2016-07-13T11:10:29.797Z,25.92
2016-07-13T11:11:29.087Z,25.82
2016-07-13T11:12:30.504Z,25.85
2016-07-13T11:13:29.812Z,25.73
2016-07-13T11:14:29.105Z,25.75
2016-07-13T11:15:29.107Z,25.8
2016-07-13T11:16:30.527Z,25.77
2016-07-13T11:17:30.536Z,25.76
2016-07-13T11:18:29.832Z,25.69
2016-07-13T11:19:29.841Z,25.76
2016-07-13T11:20:31.692Z,25.82
2016-07-13T11:21:30.559Z,25.87
2016-07-13T11:22:29.864Z,25.87
2016-07-13T11:23:29.206Z,25.88
2016-07-13T11:24:29.163Z,25.82
2016-07-13T11:25:30.586Z,25.8
2016-07-13T11:26:29.223Z,25.82
2016-07-13T11:27:29.884Z,25.79
2016-07-13T11:28:29.892Z,25.75
2016-07-13T11:29:30.603Z,25.8
2016-07-13T11:30:29.903Z,25.79
2016-07-13T11:31:30.884Z,25.67
2016-07-13T11:32:29.915Z,25.67
2016-07-13T11:33:29.918Z,25.79
2016-07-13T11:34:30.635Z,25.77
2016-07-13T11:35:30.641Z,25.79
2016-07-13T11:36:30.040Z,25.75
2016-07-13T11:37:29.944Z,25.72
2016-07-13T11:38:30.705Z,25.85
2016-07-13T11:39:30.661Z,25.8
2016-07-13T11:40:30.666Z,25.69
2016-07-13T11:41:30.674Z,25.76
2016-07-13T11:42:30.948Z,25.73
2016-07-13T11:43:29.981Z,25.9
2016-07-13T11:44:29.986Z,25.85
2016-07-13T11:45:29.988Z,25.82
2016-07-13T11:46:30.011Z,25.8
2016-07-13T11:47:30.709Z,25.82
2016-07-13T11:48:30.715Z,25.76
2016-07-13T11:49:30.554Z,25.75
2016-07-13T11:50:30.740Z,25.8
2016-07-13T11:51:30.624Z,25.75
2016-07-13T11:52:30.035Z,25.79
2016-07-13T11:53:31.719Z,25.69
2016-07-13T11:54:30.787Z,25.7
2016-07-13T11:55:30.759Z,25.7
2016-07-13T11:56:30.764Z,25.82
2016-07-13T11:57:29.355Z,25.72
2016-07-13T11:58:29.357Z,25.64
2016-07-13T11:59:29.377Z,25.72
2016-07-13T12:00:30.081Z,25.7
2016-07-13T12:01:29.376Z,25.69
2016-07-13T12:02:30.143Z,25.73
2016-07-13T12:03:29.387Z,25.76
2016-07-13T12:04:31.785Z,25.77
2016-07-13T12:05:29.402Z,25.88
2016-07-13T12:06:30.111Z,25.91
2016-07-13T12:07:30.120Z,25.87
2016-07-13T12:08:30.124Z,25.88
2016-07-13T12:09:30.137Z,25.83
2016-07-13T12:10:30.140Z,25.88
2016-07-13T12:11:30.145Z,25.77
2016-07-13T12:12:30.158Z,25.76
2016-07-13T12:13:31.116Z,25.77
2016-07-13T12:14:30.164Z,25.79
2016-07-13T12:15:30.168Z,25.76
2016-07-13T12:16:30.171Z,25.87
2016-07-13T12:17:30.179Z,25.87
2016-07-13T12:18:30.892Z,25.83
2016-07-13T12:19:30.192Z,25.88
2016-07-13T12:20:29.490Z,25.88
2016-07-13T12:21:30.206Z,25.76
2016-07-13T12:22:30.922Z,25.69
2016-07-13T12:23:29.511Z,25.83
2016-07-13T12:24:31.392Z,25.82
2016-07-13T12:25:30.933Z,25.83
2016-07-13T12:26:30.376Z,25.76
2016-07-13T12:27:30.238Z,25.76
2016-07-13T12:28:30.245Z,25.8
2016-07-13T12:29:30.254Z,25.9
2016-07-13T12:30:29.549Z,25.87
2016-07-13T12:31:30.269Z,25.8
2016-07-13T12:32:29.565Z,25.77
2016-07-13T12:33:30.276Z,25.67
2016-07-13T12:34:30.303Z,25.58
2016-07-13T12:35:29.582Z,25.82
2016-07-13T12:36:30.292Z,25.76
2016-07-13T12:37:30.841Z,25.82
2016-07-13T12:38:31.012Z,25.94
2016-07-13T12:39:31.020Z,25.85
2016-07-13T12:40:31.022Z,25.9
2016-07-13T12:41:30.326Z,25.97
2016-07-13T12:42:31.042Z,25.82
2016-07-13T12:43:31.117Z,25.79
2016-07-13T12:44:30.389Z,25.82
2016-07-13T12:45:30.350Z,25.83
2016-07-13T12:46:31.484Z,25.77
2016-07-13T12:47:30.363Z,25.79
2016-07-13T12:48:31.277Z,25.85
2016-07-13T12:49:30.374Z,25.8
2016-07-13T12:50:30.380Z,25.88
2016-07-13T12:51:31.157Z,25.83
2016-07-13T12:52:30.401Z,25.91
2016-07-13T12:53:31.105Z,25.92
2016-07-13T12:54:31.141Z,26.02
2016-07-13T12:55:29.706Z,25.9
2016-07-13T12:56:30.418Z,25.83